Time;durP1;ratioP1;P1;durP2;ratioP2;P2;SDS_P1;SDS_P2;PMS_P1;PMS_P2;Temp;Humidity;BMP_temperature;BMP_pressure;BME280_temperature;BME280_humidity;BME280_pressure;Samples;Min_cycle;Max_cycle;Signal;HPM_P1;HPM_P2
2021/12/12 00:00:03;;;;;;;42.70;22.47;;;;;;;1.31;100.00;99244.91;12850312;23;20028;-84
2021/12/12 00:05:59;;;;;;;41.65;20.35;;;;;;;1.50;100.00;99232.25;12854866;23;20016;-82
2021/12/12 00:11:06;;;;;;;43.80;20.63;;;;;;;1.63;100.00;99252.28;12823892;23;20013;-83
2021/12/12 00:16:10;;;;;;;39.42;20.02;;;;;;;1.83;100.00;99244.69;12822734;23;20032;-85
2021/12/12 00:21:17;;;;;;;34.97;19.05;;;;;;;1.83;100.00;99239.41;12839820;23;20021;-82
2021/12/12 00:26:19;;;;;;;33.97;17.80;;;;;;;1.79;100.00;99242.75;12865842;23;20024;-83
2021/12/12 00:31:27;;;;;;;34.65;18.27;;;;;;;1.81;100.00;99246.75;12895473;23;20333;-83
2021/12/12 00:36:29;;;;;;;37.22;18.63;;;;;;;1.89;100.00;99251.66;12869357;23;20012;-83
2021/12/12 00:41:56;;;;;;;38.20;18.83;;;;;;;1.93;100.00;99259.94;12892228;23;20039;-86
2021/12/12 00:47:06;;;;;;;31.33;18.58;;;;;;;1.89;100.00;99269.38;12903400;23;20004;-83
2021/12/12 00:52:18;;;;;;;32.67;18.05;;;;;;;1.88;100.00;99284.47;12859890;23;20112;-83
2021/12/12 00:57:23;;;;;;;34.33;18.60;;;;;;;1.96;100.00;99281.41;12840491;23;20056;-83
2021/12/12 01:02:31;;;;;;;34.13;18.83;;;;;;;1.92;100.00;99292.72;12894461;23;20024;-82
2021/12/12 01:07:55;;;;;;;35.13;18.75;;;;;;;1.85;100.00;99294.75;12902967;23;20116;-83
2021/12/12 01:13:47;;;;;;;32.42;17.70;;;;;;;1.90;100.00;99300.09;12873170;23;20016;-80
2021/12/12 01:19:13;;;;;;;30.83;17.08;;;;;;;1.81;100.00;99302.34;12909304;22;20017;-84
2021/12/12 01:24:59;;;;;;;29.95;17.00;;;;;;;1.78;100.00;99307.31;12892154;22;20048;-85
2021/12/12 01:30:22;;;;;;;34.58;17.45;;;;;;;1.75;100.00;99300.66;12836451;22;20013;-85
2021/12/12 01:36:32;;;;;;;34.30;18.02;;;;;;;1.77;100.00;99303.88;12814873;23;20009;-81
2021/12/12 01:42:19;;;;;;;29.98;17.25;;;;;;;1.76;100.00;99306.78;12813654;23;20009;-85
2021/12/12 01:48:21;;;;;;;29.75;16.52;;;;;;;1.84;100.00;99322.25;12770771;23;20092;-83
2021/12/12 01:54:21;;;;;;;30.67;16.88;;;;;;;1.84;100.00;99323.06;12834961;23;20052;-85
2021/12/12 01:59:45;;;;;;;;;;;;;;;;;;;;;
2021/12/12 02:05:39;;;;;;;33.33;16.70;;;;;;;1.90;100.00;99348.53;12799815;23;20031;-84
2021/12/12 02:11:31;;;;;;;26.33;15.13;;;;;;;1.97;100.00;99346.56;12834737;23;20036;-84
2021/12/12 02:17:24;;;;;;;33.28;16.52;;;;;;;2.08;100.00;99338.75;12833929;23;20024;-84
2021/12/12 02:23:40;;;;;;;27.50;15.52;;;;;;;1.99;100.00;99336.50;12829786;23;20109;-84
2021/12/12 02:40:33;;;;;;;27.38;15.10;;;;;;;1.98;100.00;99319.03;12809032;23;20025;-83
2021/12/12 02:46:13;;;;;;;28.95;14.55;;;;;;;1.99;100.00;99320.63;12823710;23;20678;-83
2021/12/12 02:51:41;;;;;;;28.70;15.20;;;;;;;2.06;100.00;99322.31;12819189;23;20021;-83
2021/12/12 02:57:30;;;;;;;28.67;14.82;;;;;;;2.03;100.00;99320.97;12822589;23;20025;-83
2021/12/12 03:02:33;;;;;;;26.40;15.15;;;;;;;2.05;100.00;99320.72;12820430;23;20025;-83
2021/12/12 03:07:42;;;;;;;27.08;15.27;;;;;;;1.95;100.00;99330.09;12814962;23;20017;-83
2021/12/12 03:12:46;;;;;;;29.05;15.32;;;;;;;1.98;100.00;99331.47;12763253;23;20029;-83
2021/12/12 03:17:51;;;;;;;29.58;16.17;;;;;;;1.97;100.00;99333.31;12811741;23;20025;-82
2021/12/12 03:23:24;;;;;;;27.83;14.00;;;;;;;1.86;100.00;99339.50;12803721;23;20024;-84
2021/12/12 03:28:36;;;;;;;26.83;13.95;;;;;;;1.89;100.00;99341.66;12756595;23;20033;-84
2021/12/12 03:33:44;;;;;;;26.30;14.35;;;;;;;1.98;100.00;99336.75;12769782;23;20017;-85
2021/12/12 03:39:01;;;;;;;28.92;15.30;;;;;;;1.93;100.00;99344.63;12792027;23;20044;-84
2021/12/12 03:44:31;;;;;;;28.27;15.40;;;;;;;2.02;100.00;99353.78;12832624;23;20016;-82
2021/12/12 03:50:09;;;;;;;32.85;15.18;;;;;;;1.91;100.00;99358.09;12817607;23;20013;-82
2021/12/12 03:55:20;;;;;;;26.90;13.90;;;;;;;2.04;100.00;99372.06;12845651;23;20020;-84
2021/12/12 04:00:33;;;;;;;28.88;14.77;;;;;;;2.08;100.00;99371.34;12811504;23;20080;-83
2021/12/12 04:12:05;;;;;;;24.25;13.57;;;;;;;2.16;100.00;99373.59;12827929;23;20048;-82
2021/12/12 04:17:17;;;;;;;25.02;14.45;;;;;;;2.23;100.00;99376.88;12808814;23;20097;-84
2021/12/12 04:22:22;;;;;;;23.33;13.73;;;;;;;2.20;100.00;99380.03;12845551;23;20009;-83
2021/12/12 04:27:30;;;;;;;21.63;12.48;;;;;;;2.20;100.00;99379.22;12825512;23;20029;-86
2021/12/12 04:57:04;;;;;;;15.15;7.90;;;;;;;1.85;100.00;99385.53;12610008;23;20084;-87
2021/12/12 05:02:40;;;;;;;13.07;8.23;;;;;;;1.73;100.00;99392.72;12761745;23;20078;-82
2021/12/12 05:08:40;;;;;;;12.60;7.43;;;;;;;1.58;100.00;99403.03;12753973;23;20013;-83
2021/12/12 05:14:21;;;;;;;16.15;7.90;;;;;;;1.25;100.00;99401.06;12756381;23;20040;-83
2021/12/12 05:19:51;;;;;;;16.80;7.40;;;;;;;1.10;100.00;99402.38;12769192;23;20028;-83
2021/12/12 05:25:02;;;;;;;18.13;8.43;;;;;;;0.89;100.00;99431.25;12721447;23;20101;-84
2021/12/12 05:30:19;;;;;;;14.75;7.45;;;;;;;0.66;100.00;99435.50;12753469;23;20014;-82
2021/12/12 05:35:39;;;;;;;10.15;6.65;;;;;;;0.52;100.00;99445.50;12779207;23;20013;-84
2021/12/12 05:41:54;;;;;;;18.45;7.68;;;;;;;0.27;100.00;99442.22;12778603;23;20010;-88
2021/12/12 05:47:20;;;;;;;14.43;6.95;;;;;;;0.16;100.00;99450.94;12770982;23;20017;-84
2021/12/12 05:52:21;;;;;;;10.48;7.20;;;;;;;-0.01;100.00;99454.22;12714893;23;20022;-84
2021/12/12 05:57:30;;;;;;;12.07;7.90;;;;;;;-0.11;100.00;99461.06;12703940;23;20032;-83
2021/12/12 06:02:33;;;;;;;12.00;7.68;;;;;;;-0.09;100.00;99469.56;12703268;23;20021;-82
2021/12/12 06:07:53;;;;;;;13.98;7.40;;;;;;;-0.18;100.00;99479.66;12747126;23;20022;-83
2021/12/12 06:13:13;;;;;;;11.52;7.20;;;;;;;-0.30;100.00;99479.56;12755929;23;20089;-82
2021/12/12 06:19:01;;;;;;;10.98;6.90;;;;;;;-0.52;100.00;99501.38;12768900;23;20048;-85
2021/12/12 06:29:44;;;;;;;14.52;8.20;;;;;;;-0.87;100.00;99508.00;12767949;23;20031;-82
2021/12/12 06:34:58;;;;;;;14.90;8.85;;;;;;;-0.92;100.00;99509.69;12710651;23;20029;-84
2021/12/12 06:40:20;;;;;;;15.35;7.53;;;;;;;-0.89;100.00;99520.59;12758303;23;20072;-84
2021/12/12 06:45:34;;;;;;;17.15;8.85;;;;;;;-0.83;100.00;99520.75;12739290;23;20013;-82
2021/12/12 06:50:44;;;;;;;;;;;;;;;-0.65;100.00;99518.94;12732933;23;20066;-84
2021/12/12 06:55:49;;;;;;;13.00;7.05;;;;;;;-0.74;100.00;99530.78;12721220;23;20567;-82
2021/12/12 07:19:40;;;;;;;15.02;7.82;;;;;;;-1.10;100.00;99551.78;12748755;23;20041;-82
2021/12/12 07:24:43;;;;;;;13.18;7.55;;;;;;;-1.18;100.00;99555.53;12750146;23;20029;-84
2021/12/12 07:30:19;;;;;;;;;;;;;;;;;;;;;
2021/12/12 07:36:01;;;;;;;11.95;8.07;;;;;;;-1.05;100.00;99554.59;12772475;23;20013;-81
2021/12/12 07:41:14;;;;;;;15.90;8.00;;;;;;;-0.90;100.00;99545.34;12764962;23;20024;-82
2021/12/12 07:46:39;;;;;;;17.05;8.18;;;;;;;-0.65;100.00;99544.47;12775227;23;20073;-83
2021/12/12 07:52:11;;;;;;;15.18;8.15;;;;;;;-0.50;100.00;99537.03;12819388;23;20031;-85
2021/12/12 07:57:53;;;;;;;17.25;8.13;;;;;;;-0.32;100.00;99541.50;12816035;23;20044;-85
2021/12/12 08:03:09;;;;;;;16.23;7.75;;;;;;;-0.11;100.00;99530.47;12797140;23;20045;-82
2021/12/12 08:08:13;;;;;;;15.57;7.18;;;;;;;0.10;100.00;99528.41;12762690;23;20048;-82
2021/12/12 08:13:23;;;;;;;13.23;6.55;;;;;;;0.34;100.00;99524.00;12765055;23;20032;-84
2021/12/12 08:18:33;;;;;;;13.95;7.25;;;;;;;0.30;100.00;99515.72;12815923;23;20020;-87
2021/12/12 08:23:55;;;;;;;9.43;6.35;;;;;;;0.36;100.00;99521.91;12834642;23;20013;-84
2021/12/12 08:29:20;;;;;;;11.95;6.57;;;;;;;0.27;100.00;99518.78;12717057;23;20025;-83
2021/12/12 08:34:30;;;;;;;11.15;6.43;;;;;;;0.24;100.00;99527.97;12732463;23;20026;-86
2021/12/12 08:39:33;;;;;;;9.95;5.93;;;;;;;0.32;100.00;99528.69;12761031;23;20052;-80
2021/12/12 08:44:40;;;;;;;10.82;6.38;;;;;;;0.39;100.00;99530.22;12763552;23;20021;-83
2021/12/12 08:49:42;;;;;;;10.02;6.20;;;;;;;0.77;100.00;99529.03;12728938;23;20018;-82
2021/12/12 08:54:45;;;;;;;10.38;6.03;;;;;;;1.16;100.00;99521.44;12734754;23;20073;-81
2021/12/12 08:59:52;;;;;;;8.60;5.35;;;;;;;1.46;100.00;99529.22;12757696;23;20001;-82
2021/12/12 09:05:22;;;;;;;7.38;5.05;;;;;;;1.53;100.00;99522.78;12739780;23;20071;-82
2021/12/12 09:10:43;;;;;;;8.18;5.03;;;;;;;1.71;100.00;99524.47;12583309;23;20062;-81
2021/12/12 09:16:11;;;;;;;12.20;5.47;;;;;;;1.86;100.00;99522.13;12631642;23;20013;-81
2021/12/12 09:21:25;;;;;;;8.43;5.00;;;;;;;1.93;100.00;99527.31;12763208;23;20025;-81
2021/12/12 09:27:04;;;;;;;7.72;4.07;;;;;;;2.02;100.00;99517.94;12786322;23;20012;-84
2021/12/12 09:32:17;;;;;;;6.90;4.82;;;;;;;2.07;100.00;99512.72;12629619;23;20021;-77
2021/12/12 09:37:27;;;;;;;7.10;4.57;;;;;;;2.17;100.00;99504.97;12776599;23;20017;-73
2021/12/12 09:42:30;;;;;;;7.63;4.65;;;;;;;2.38;100.00;99502.66;12712977;23;20041;-74
2021/12/12 09:51:14;;;;;;;6.85;4.85;;;;;;;2.49;100.00;99505.28;12743813;23;20033;-83
2021/12/12 09:54:19;;;;;;;6.80;4.70;;;;;;;2.55;100.00;99492.88;12749494;23;20017;-83
2021/12/12 10:00:12;;;;;;;8.85;5.38;;;;;;;2.53;100.00;99481.72;12770812;23;20045;-84
2021/12/12 10:05:52;;;;;;;8.63;4.85;;;;;;;2.63;100.00;99476.59;12718707;23;20037;-76
2021/12/12 10:11:02;;;;;;;8.73;5.68;;;;;;;2.64;100.00;99477.38;12737869;23;20010;-82
2021/12/12 10:16:34;;;;;;;7.18;4.60;;;;;;;3.00;100.00;99476.88;12751052;23;20040;-83
2021/12/12 10:22:01;;;;;;;8.63;5.43;;;;;;;3.31;100.00;99472.81;12691650;23;20028;-84
2021/12/12 10:27:38;;;;;;;8.38;4.80;;;;;;;3.24;100.00;99458.13;12757410;23;20033;-81
2021/12/12 10:33:05;;;;;;;11.98;6.65;;;;;;;3.38;100.00;99469.94;12776743;23;20009;-81
2021/12/12 10:38:34;;;;;;;7.43;4.80;;;;;;;3.43;100.00;99457.56;12766399;23;20025;-81
2021/12/12 10:50:02;;;;;;;7.55;3.75;;;;;;;3.31;100.00;99437.50;12741421;23;20033;-84
2021/12/12 11:01:18;;;;;;;7.38;4.32;;;;;;;3.84;100.00;99431.47;12762844;23;20018;-84
2021/12/12 11:07:23;;;;;;;6.15;3.83;;;;;;;4.21;100.00;99430.75;12748330;23;20021;-82
2021/12/12 11:14:11;;;;;;;6.80;4.00;;;;;;;4.40;100.00;99417.91;12759111;23;20017;-83
2021/12/12 11:20:22;;;;;;;9.70;5.68;;;;;;;4.18;100.00;99424.09;12713533;23;20457;-85
2021/12/12 11:32:11;;;;;;;8.40;3.65;;;;;;;4.78;100.00;99441.56;12823603;23;20021;-83
2021/12/12 11:38:19;;;;;;;;;;;;;;;;;;;;;
2021/12/12 11:44:15;;;;;;;9.88;3.55;;;;;;;5.17;100.00;99419.97;12829629;23;20124;-83
2021/12/12 11:55:32;;;;;;;9.52;4.10;;;;;;;4.95;100.00;99406.81;12774359;23;20018;-84
2021/12/12 12:01:24;;;;;;;6.18;4.18;;;;;;;4.96;100.00;99403.09;12723080;23;20006;-85
2021/12/12 12:07:03;;;;;;;5.97;4.22;;;;;;;4.88;100.00;99410.78;12754598;23;20168;-84
2021/12/12 12:12:53;;;;;;;6.82;4.55;;;;;;;4.93;100.00;99387.63;12805843;23;20047;-84
2021/12/12 12:31:32;;;;;;;;;;;;;;;;;;;;;
2021/12/12 12:38:06;;;;;;;;;;;;;;;;;;;;;
2021/12/12 12:44:21;;;;;;;8.75;4.47;;;;;;;4.81;100.00;99371.88;12508455;23;20046;-88
2021/12/12 12:56:37;;;;;;;7.50;5.13;;;;;;;4.92;100.00;99371.94;12518392;23;20038;-85
2021/12/12 13:02:25;;;;;;;7.13;4.78;;;;;;;4.70;100.00;99385.41;12490485;23;20058;-86
2021/12/12 13:08:20;;;;;;;6.95;4.63;;;;;;;4.47;100.00;99375.94;12764410;23;20080;-83
2021/12/12 13:14:05;;;;;;;8.73;4.68;;;;;;;4.58;100.00;99374.97;12646284;23;20045;-83
2021/12/12 13:20:12;;;;;;;6.97;4.43;;;;;;;4.63;100.00;99359.03;12805466;23;20084;-83
2021/12/12 13:25:25;;;;;;;7.07;4.60;;;;;;;4.28;100.00;99359.59;12730579;23;20029;-85
2021/12/12 13:36:25;;;;;;;8.98;4.53;;;;;;;4.27;100.00;99369.41;12835855;23;20054;-84
2021/12/12 13:42:06;;;;;;;8.32;5.22;;;;;;;4.06;100.00;99372.97;12765523;23;20031;-82
2021/12/12 13:47:47;;;;;;;8.32;5.03;;;;;;;3.93;100.00;99371.56;12829564;23;20032;-83
2021/12/12 13:53:20;;;;;;;9.85;5.93;;;;;;;3.91;100.00;99384.25;12824619;23;20021;-85
2021/12/12 13:59:25;;;;;;;7.65;5.53;;;;;;;3.92;100.00;99383.19;12835667;23;20001;-84
2021/12/12 14:05:10;;;;;;;10.88;5.22;;;;;;;3.86;100.00;99375.47;12637742;23;20013;-84
2021/12/12 14:10:35;;;;;;;10.35;4.75;;;;;;;3.81;100.00;99376.19;12798720;23;20052;-82
2021/12/12 14:16:36;;;;;;;7.97;5.32;;;;;;;3.81;100.00;99386.03;12790044;23;20017;-84
2021/12/12 14:21:57;;;;;;;9.48;5.03;;;;;;;3.82;100.00;99391.09;12786184;23;20028;-85
2021/12/12 14:27:37;;;;;;;8.70;5.53;;;;;;;3.71;100.00;99398.16;12841453;23;20005;-85
2021/12/12 15:01:24;;;;;;;9.90;6.57;;;;;;;3.27;100.00;99413.31;12783083;23;20017;-88
2021/12/12 15:13:06;;;;;;;12.37;7.17;;;;;;;3.15;100.00;99412.63;12791867;23;20029;-85
2021/12/12 15:19:02;;;;;;;8.82;6.38;;;;;;;3.02;100.00;99428.94;12574446;23;20009;-85
2021/12/12 15:30:52;;;;;;;10.05;6.97;;;;;;;2.88;100.00;99417.84;12766072;23;20041;-85
2021/12/12 15:42:42;;;;;;;9.90;6.57;;;;;;;2.85;100.00;99403.25;12816957;23;20013;-86
2021/12/12 15:48:25;;;;;;;10.60;6.38;;;;;;;2.86;100.00;99398.75;12737229;23;20016;-88
2021/12/12 16:05:54;;;;;;;14.90;8.70;;;;;;;2.80;100.00;99408.47;12785271;23;20005;-84
2021/12/12 16:11:52;;;;;;;14.82;8.32;;;;;;;2.73;100.00;99414.97;12758426;23;20017;-85
2021/12/12 16:17:45;;;;;;;11.00;7.25;;;;;;;2.71;100.00;99417.06;12789350;23;20022;-85
2021/12/12 16:23:27;;;;;;;10.30;7.32;;;;;;;2.73;100.00;99428.22;12767375;23;20077;-83
2021/12/12 16:29:26;;;;;;;9.05;6.85;;;;;;;2.71;100.00;99425.81;12760694;23;20006;-85
2021/12/12 16:34:55;;;;;;;10.23;6.88;;;;;;;2.71;100.00;99420.53;12787613;23;20017;-80
2021/12/12 16:40:32;;;;;;;8.53;6.80;;;;;;;2.68;100.00;99417.56;12741261;23;20018;-82
2021/12/12 16:46:02;;;;;;;11.43;7.43;;;;;;;2.65;100.00;99423.34;12782541;23;20013;-84
2021/12/12 16:51:06;;;;;;;10.15;6.38;;;;;;;2.62;100.00;99426.47;12752628;23;20461;-83
2021/12/12 16:56:56;;;;;;;11.55;7.30;;;;;;;2.61;100.00;99427.53;12774811;23;20029;-81
2021/12/12 17:02:06;;;;;;;11.88;7.30;;;;;;;2.63;100.00;99428.88;12723297;23;20017;-81
2021/12/12 17:07:13;;;;;;;12.32;7.38;;;;;;;2.66;100.00;99440.88;12743943;23;20038;-81
2021/12/12 17:12:26;;;;;;;14.68;8.18;;;;;;;2.52;100.00;99461.59;12764549;23;20013;-80
2021/12/12 17:17:44;;;;;;;;;;;;;;;2.44;100.00;99464.63;12737798;23;20017;-82
2021/12/12 17:23:13;;;;;;;12.20;7.45;;;;;;;2.33;100.00;99470.81;12767200;23;19916;-84
2021/12/12 17:28:24;;;;;;;12.40;8.05;;;;;;;2.25;100.00;99467.50;12735019;23;20077;-83
2021/12/12 17:33:30;;;;;;;14.07;8.80;;;;;;;2.23;100.00;99474.09;12787465;23;20049;-85
2021/12/12 17:39:04;;;;;;;17.48;9.40;;;;;;;2.16;100.00;99470.78;12752154;23;20029;-83
2021/12/12 17:44:58;;;;;;;14.95;9.43;;;;;;;2.07;100.00;99483.59;12746153;23;20739;-83
2021/12/12 17:50:24;;;;;;;16.65;10.88;;;;;;;2.02;100.00;99485.38;12715780;23;20306;-82
2021/12/12 17:56:06;;;;;;;15.70;9.88;;;;;;;1.90;100.00;99493.34;12743078;23;20057;-82
2021/12/12 18:01:30;;;;;;;17.67;11.15;;;;;;;1.89;100.00;99497.84;12742406;23;20029;-82
2021/12/12 18:07:05;;;;;;;21.55;12.20;;;;;;;1.83;100.00;99501.44;12743677;23;20025;-80
2021/12/12 18:18:19;;;;;;;19.48;11.57;;;;;;;1.78;100.00;99489.94;12697817;23;20044;-82
2021/12/12 18:24:44;;;;;;;20.17;12.65;;;;;;;1.68;100.00;99494.00;12792666;23;20009;-83
2021/12/12 18:30:44;;;;;;;21.50;13.27;;;;;;;1.67;100.00;99499.53;12761955;23;20022;-84
2021/12/12 18:41:45;;;;;;;26.15;14.68;;;;;;;1.67;100.00;99500.34;12478698;23;20039;-82
2021/12/12 18:47:20;;;;;;;25.65;14.98;;;;;;;1.72;100.00;99502.25;12709101;23;20032;-80
2021/12/12 18:52:33;;;;;;;28.13;16.67;;;;;;;1.70;100.00;99512.28;12780995;23;20013;-81
2021/12/12 18:57:47;;;;;;;32.15;16.15;;;;;;;1.66;100.00;99521.75;12742191;23;20024;-80
2021/12/12 19:03:08;;;;;;;33.25;17.13;;;;;;;1.70;100.00;99514.94;12779953;23;20006;-87
2021/12/12 19:08:35;;;;;;;29.52;16.90;;;;;;;1.70;100.00;99514.94;12747155;23;20029;-82
2021/12/12 19:13:55;;;;;;;28.25;15.70;;;;;;;1.71;100.00;99514.69;12776058;23;20088;-82
2021/12/12 19:19:29;;;;;;;31.77;16.88;;;;;;;1.70;100.00;99515.72;12736519;23;20025;-82
2021/12/12 19:24:37;;;;;;;33.83;17.08;;;;;;;1.73;100.00;99518.94;12767082;23;20013;-83
2021/12/12 19:30:23;;;;;;;30.00;16.58;;;;;;;1.77;100.00;99518.25;12760461;23;20021;-81
2021/12/12 19:35:58;;;;;;;31.63;17.42;;;;;;;1.75;100.00;99524.81;12754792;23;20013;-83
2021/12/12 19:41:33;;;;;;;34.35;18.30;;;;;;;1.67;100.00;99518.84;12738383;23;20025;-83
2021/12/12 19:46:40;;;;;;;39.03;19.45;;;;;;;1.79;100.00;99510.88;12745692;23;20021;-83
2021/12/12 19:51:47;;;;;;;40.47;19.70;;;;;;;1.71;100.00;99519.19;12709610;23;20350;-82
2021/12/12 19:57:12;;;;;;;41.60;20.23;;;;;;;1.80;100.00;99506.38;12760769;23;20096;-83
2021/12/12 20:02:25;;;;;;;37.13;19.50;;;;;;;1.83;100.00;99516.50;12770701;23;20032;-82
2021/12/12 20:07:40;;;;;;;37.92;20.38;;;;;;;1.80;100.00;99503.75;12745658;23;20021;-82
2021/12/12 20:12:42;;;;;;;40.00;21.48;;;;;;;1.79;100.00;99518.81;12753386;23;20043;-82
2021/12/12 20:17:50;;;;;;;34.97;18.77;;;;;;;1.94;100.00;99511.19;12791722;23;20056;-84
2021/12/12 20:23:27;;;;;;;39.47;20.17;;;;;;;1.89;100.00;99521.66;12791693;23;20016;-81
2021/12/12 20:28:34;;;;;;;40.78;21.27;;;;;;;1.91;100.00;99516.94;12736851;23;20009;-83
2021/12/12 20:34:00;;;;;;;43.28;21.40;;;;;;;1.83;100.00;99527.06;12750044;23;20029;-83
2021/12/12 20:39:10;;;;;;;44.72;21.90;;;;;;;1.86;100.00;99530.06;12747674;23;20073;-86
2021/12/12 20:44:18;;;;;;;46.28;22.40;;;;;;;1.92;100.00;99529.16;12789670;23;20024;-79
2021/12/12 20:49:41;;;;;;;40.75;21.58;;;;;;;1.85;100.00;99540.91;12759809;23;20048;-83
2021/12/12 20:55:06;;;;;;;50.40;23.87;;;;;;;1.85;100.00;99548.84;12734778;23;20010;-87
2021/12/12 21:00:35;;;;;;;41.75;20.90;;;;;;;1.95;100.00;99538.44;12778980;23;20276;-84
2021/12/12 21:05:52;;;;;;;52.13;23.88;;;;;;;1.92;100.00;99529.16;12787297;23;20060;-82
2021/12/12 21:10:54;;;;;;;49.15;23.42;;;;;;;1.91;100.00;99537.31;12792019;23;20009;-82
2021/12/12 21:16:20;;;;;;;53.20;24.67;;;;;;;2.07;100.00;99535.75;12792538;23;20048;-81
2021/12/12 21:21:38;;;;;;;;;;;;;;;2.06;100.00;99528.84;12758286;23;20025;-86
2021/12/12 21:27:04;;;;;;;47.70;23.90;;;;;;;2.00;100.00;99526.09;12762231;23;19917;-82
2021/12/12 21:32:15;;;;;;;46.67;22.52;;;;;;;1.99;100.00;99521.84;12725520;23;20853;-80
2021/12/12 21:37:50;;;;;;;43.75;20.88;;;;;;;1.99;100.00;99521.84;12733005;23;20009;-84
2021/12/12 21:43:43;;;;;;;50.92;22.33;;;;;;;2.08;100.00;99516.19;12760414;23;20033;-82
2021/12/12 21:49:52;;;;;;;46.95;22.52;;;;;;;1.95;100.00;99517.28;12725026;23;20014;-85
2021/12/12 21:55:57;;;;;;;48.55;23.80;;;;;;;2.00;100.00;99520.81;12726069;23;20084;-84
2021/12/12 22:01:13;;;;;;;57.03;26.40;;;;;;;1.99;100.00;99513.09;12739305;23;20084;-84
2021/12/12 22:06:49;;;;;;;49.50;23.80;;;;;;;2.03;100.00;99516.09;12772418;23;20021;-85
2021/12/12 22:12:23;;;;;;;56.22;25.48;;;;;;;2.02;100.00;99517.16;12767521;23;20044;-82
2021/12/12 22:17:32;;;;;;;62.95;26.20;;;;;;;2.06;100.00;99515.63;12735680;23;20075;-80
2021/12/12 22:22:40;;;;;;;50.75;23.30;;;;;;;2.08;100.00;99518.81;12728792;23;20021;-82
2021/12/12 22:27:46;;;;;;;52.78;24.60;;;;;;;2.03;100.00;99518.75;12747596;23;20037;-85
2021/12/12 22:33:25;;;;;;;62.80;24.40;;;;;;;2.08;100.00;99527.56;12748458;23;20029;-81
2021/12/12 22:38:55;;;;;;;58.15;24.88;;;;;;;2.09;100.00;99525.72;12779623;23;20017;-82
2021/12/12 22:44:10;;;;;;;55.83;24.63;;;;;;;2.10;100.00;99512.25;12751931;23;20018;-83
2021/12/12 22:49:28;;;;;;;54.72;23.13;;;;;;;2.11;100.00;99515.72;12724529;23;20109;-83
2021/12/12 22:54:46;;;;;;;51.25;22.63;;;;;;;2.13;100.00;99521.59;12759414;23;20138;-81
2021/12/12 23:00:36;;;;;;;51.45;22.80;;;;;;;2.13;100.00;99514.44;12767756;23;20013;-83
2021/12/12 23:06:24;;;;;;;55.67;25.08;;;;;;;2.08;100.00;99518.81;12763792;23;20040;-81
2021/12/12 23:11:46;;;;;;;73.53;30.30;;;;;;;2.16;100.00;99521.91;12735934;23;20097;-83
2021/12/12 23:16:54;;;;;;;55.53;24.48;;;;;;;2.22;100.00;99522.81;12693623;23;20025;-81
2021/12/12 23:22:02;;;;;;;61.58;25.13;;;;;;;2.20;100.00;99515.09;12718320;23;20108;-84
2021/12/12 23:27:22;;;;;;;68.43;27.17;;;;;;;2.15;100.00;99525.59;12743868;23;20033;-80
2021/12/12 23:32:32;;;;;;;64.30;26.30;;;;;;;2.23;100.00;99521.75;12725905;23;20132;-81
2021/12/12 23:38:24;;;;;;;69.40;24.08;;;;;;;2.24;100.00;99524.16;12718329;23;20036;-83
2021/12/12 23:50:23;;;;;;;66.00;26.40;;;;;;;2.23;100.00;99519.91;12564258;23;20030;-82
2021/12/12 23:55:52;;;;;;;64.50;26.63;;;;;;;2.18;100.00;99517.16;12546198;23;20035;-87
